Time;durP1;ratioP1;P1;durP2;ratioP2;P2;SDS_P1;SDS_P2;PMS_P1;PMS_P2;Temp;Humidity;BMP_temperature;BMP_pressure;BME280_temperature;BME280_humidity;BME280_pressure;Samples;Min_cycle;Max_cycle;Signal;HPM_P1;HPM_P2
2021/02/21 00:00:30;;;;;;;12.2;5.299999;;;;;;;1.31;100;95399.97;;;;
2021/02/21 00:01:33;;;;;;;12.2;5.299999;;;;;;;1.31;100;95399.97;;;;
2021/02/21 00:02:34;;;;;;;12.2;5.299999;;;;;;;1.31;100;95399.97;;;;
2021/02/21 00:03:34;;;;;;;8.550001;4.9;;;;;;;1.15;100;95398.74;;;;
2021/02/21 00:04:35;;;;;;;8.550001;4.9;;;;;;;1.15;100;95398.74;;;;
2021/02/21 00:05:35;;;;;;;8.550001;4.9;;;;;;;1.15;100;95398.74;;;;
2021/02/21 00:06:38;;;;;;;8.550001;4.9;;;;;;;1.15;100;95398.74;;;;
2021/02/21 00:07:38;;;;;;;8.550001;4.9;;;;;;;1.15;100;95398.74;;;;
2021/02/21 00:08:40;;;;;;;8.550001;4.9;;;;;;;1.15;100;95398.74;;;;
2021/02/21 00:09:40;;;;;;;8.550001;4.9;;;;;;;1.15;100;95398.74;;;;
2021/02/21 00:10:41;;;;;;;8.550001;4.9;;;;;;;1.15;100;95398.74;;;;
2021/02/21 00:11:44;;;;;;;8.550001;4.9;;;;;;;1.15;100;95398.74;;;;
2021/02/21 00:12:44;;;;;;;8.550001;4.9;;;;;;;1.15;100;95398.74;;;;
2021/02/21 00:13:46;;;;;;;10.5;5.349999;;;;;;;1.08;100;95402.09;;;;
2021/02/21 00:14:46;;;;;;;10.5;5.349999;;;;;;;1.08;100;95402.09;;;;
2021/02/21 00:15:47;;;;;;;10.5;5.349999;;;;;;;1.08;100;95402.09;;;;
2021/02/21 00:16:49;;;;;;;10.5;5.349999;;;;;;;1.08;100;95402.09;;;;
2021/02/21 00:17:50;;;;;;;10.5;5.349999;;;;;;;1.08;100;95402.09;;;;
2021/02/21 00:18:51;;;;;;;10.5;5.349999;;;;;;;1.08;100;95402.09;;;;
2021/02/21 00:19:52;;;;;;;10.5;5.349999;;;;;;;1.08;100;95402.09;;;;
2021/02/21 00:20:53;;;;;;;10.5;5.349999;;;;;;;1.08;100;95402.09;;;;
2021/02/21 00:21:54;;;;;;;10.5;5.349999;;;;;;;1.08;100;95402.09;;;;
2021/02/21 00:22:54;;;;;;;10.5;5.349999;;;;;;;1.08;100;95402.09;;;;
2021/02/21 00:23:55;;;;;;;10.5;5.349999;;;;;;;1.08;100;95402.09;;;;
2021/02/21 00:24:56;;;;;;;13;5.15;;;;;;;0.9;100;95409.5;;;;
2021/02/21 00:25:56;;;;;;;13;5.15;;;;;;;0.9;100;95409.5;;;;
2021/02/21 00:26:57;;;;;;;13;5.15;;;;;;;0.9;100;95409.5;;;;
2021/02/21 00:27:57;;;;;;;13;5.15;;;;;;;0.9;100;95409.5;;;;
2021/02/21 00:28:58;;;;;;;13;5.15;;;;;;;0.9;100;95409.5;;;;
2021/02/21 00:29:59;;;;;;;13;5.15;;;;;;;0.9;100;95409.5;;;;
2021/02/21 00:30:59;;;;;;;13;5.15;;;;;;;0.9;100;95409.5;;;;
2021/02/21 00:32:00;;;;;;;13;5.15;;;;;;;0.9;100;95409.5;;;;
2021/02/21 00:33:01;;;;;;;13;5.15;;;;;;;0.9;100;95409.5;;;;
2021/02/21 00:34:03;;;;;;;13;5.15;;;;;;;0.9;100;95409.5;;;;
2021/02/21 00:35:03;;;;;;;13;5.15;;;;;;;0.9;100;95409.5;;;;
2021/02/21 00:36:06;;;;;;;11.75;5.100001;;;;;;;0.73;100;95413.75;;;;
2021/02/21 00:37:06;;;;;;;11.75;5.100001;;;;;;;0.73;100;95413.75;;;;
2021/02/21 00:38:07;;;;;;;11.75;5.100001;;;;;;;0.73;100;95413.75;;;;
2021/02/21 00:39:08;;;;;;;11.75;5.100001;;;;;;;0.73;100;95413.75;;;;
2021/02/21 00:40:09;;;;;;;11.75;5.100001;;;;;;;0.73;100;95413.75;;;;
2021/02/21 00:41:12;;;;;;;11.75;5.100001;;;;;;;0.73;100;95413.75;;;;
2021/02/21 00:42:13;;;;;;;11.75;5.100001;;;;;;;0.73;100;95413.75;;;;
2021/02/21 00:43:13;;;;;;;11.75;5.100001;;;;;;;0.73;100;95413.75;;;;
2021/02/21 00:44:15;;;;;;;11.75;5.100001;;;;;;;0.73;100;95413.75;;;;
2021/02/21 00:45:15;;;;;;;11.75;5.100001;;;;;;;0.73;100;95413.75;;;;
2021/02/21 00:46:18;;;;;;;8.6;4.7;;;;;;;0.63;100;95417.13;;;;
2021/02/21 00:47:18;;;;;;;8.6;4.7;;;;;;;0.63;100;95417.13;;;;
2021/02/21 00:48:19;;;;;;;8.6;4.7;;;;;;;0.63;100;95417.13;;;;
2021/02/21 00:49:20;;;;;;;8.6;4.7;;;;;;;0.63;100;95417.13;;;;
2021/02/21 00:50:21;;;;;;;8.6;4.7;;;;;;;0.63;100;95417.13;;;;
2021/02/21 00:51:22;;;;;;;8.6;4.7;;;;;;;0.63;100;95417.13;;;;
2021/02/21 00:52:23;;;;;;;8.6;4.7;;;;;;;0.63;100;95417.13;;;;
2021/02/21 00:53:23;;;;;;;8.6;4.7;;;;;;;0.63;100;95417.13;;;;
2021/02/21 00:54:24;;;;;;;8.6;4.7;;;;;;;0.63;100;95417.13;;;;
2021/02/21 00:55:24;;;;;;;8.6;4.7;;;;;;;0.63;100;95417.13;;;;
2021/02/21 00:56:26;;;;;;;8.6;4.7;;;;;;;0.63;100;95417.13;;;;
2021/02/21 00:57:27;;;;;;;9.799999;4.85;;;;;;;0.56;100;95421.44;;;;
2021/02/21 00:58:27;;;;;;;9.799999;4.85;;;;;;;0.56;100;95421.44;;;;
2021/02/21 00:59:28;;;;;;;9.799999;4.85;;;;;;;0.56;100;95421.44;;;;
2021/02/21 01:00:28;;;;;;;9.799999;4.85;;;;;;;0.56;100;95421.44;;;;
2021/02/21 01:01:32;;;;;;;9.799999;4.85;;;;;;;0.56;100;95421.44;;;;
2021/02/21 01:02:33;;;;;;;9.799999;4.85;;;;;;;0.56;100;95421.44;;;;
2021/02/21 01:03:33;;;;;;;9.799999;4.85;;;;;;;0.56;100;95421.44;;;;
2021/02/21 01:04:34;;;;;;;9.799999;4.85;;;;;;;0.56;100;95421.44;;;;
2021/02/21 01:05:34;;;;;;;9.799999;4.85;;;;;;;0.56;100;95421.44;;;;
2021/02/21 01:06:35;;;;;;;9.799999;4.85;;;;;;;0.56;100;95421.44;;;;
2021/02/21 01:07:35;;;;;;;9.350001;4.95;;;;;;;0.41;100;95429.32;;;;
2021/02/21 01:08:35;;;;;;;9.350001;4.95;;;;;;;0.41;100;95429.32;;;;
2021/02/21 01:09:36;;;;;;;9.350001;4.95;;;;;;;0.41;100;95429.32;;;;
2021/02/21 01:10:37;;;;;;;9.350001;4.95;;;;;;;0.41;100;95429.32;;;;
2021/02/21 01:11:40;;;;;;;9.350001;4.95;;;;;;;0.41;100;95429.32;;;;
2021/02/21 01:12:41;;;;;;;9.350001;4.95;;;;;;;0.41;100;95429.32;;;;
2021/02/21 01:13:42;;;;;;;9.350001;4.95;;;;;;;0.41;100;95429.32;;;;
2021/02/21 01:14:43;;;;;;;9.350001;4.95;;;;;;;0.41;100;95429.32;;;;
2021/02/21 01:15:43;;;;;;;9.350001;4.95;;;;;;;0.41;100;95429.32;;;;
2021/02/21 01:16:47;;;;;;;9.350001;4.95;;;;;;;0.41;100;95429.32;;;;
2021/02/21 01:17:48;;;;;;;9.350001;4.95;;;;;;;0.41;100;95429.32;;;;
2021/02/21 01:18:50;;;;;;;8.95;5;;;;;;;0.36;100;95437.36;;;;
2021/02/21 01:19:50;;;;;;;8.95;5;;;;;;;0.36;100;95437.36;;;;
2021/02/21 01:20:51;;;;;;;8.95;5;;;;;;;0.36;100;95437.36;;;;
2021/02/21 01:21:51;;;;;;;8.95;5;;;;;;;0.36;100;95437.36;;;;
2021/02/21 01:22:52;;;;;;;8.95;5;;;;;;;0.36;100;95437.36;;;;
2021/02/21 01:23:53;;;;;;;8.95;5;;;;;;;0.36;100;95437.36;;;;
2021/02/21 01:24:54;;;;;;;8.95;5;;;;;;;0.36;100;95437.36;;;;
2021/02/21 01:25:57;;;;;;;8.95;5;;;;;;;0.36;100;95437.36;;;;
2021/02/21 01:26:58;;;;;;;8.95;5;;;;;;;0.36;100;95437.36;;;;
2021/02/21 01:27:58;;;;;;;8.95;5;;;;;;;0.36;100;95437.36;;;;
2021/02/21 01:29:00;;;;;;;9.700002;5.05;;;;;;;0.24;100;95429.44;;;;
2021/02/21 01:30:00;;;;;;;9.700002;5.05;;;;;;;0.24;100;95429.44;;;;
2021/02/21 01:31:01;;;;;;;9.700002;5.05;;;;;;;0.24;100;95429.44;;;;
2021/02/21 01:32:01;;;;;;;9.700002;5.05;;;;;;;0.24;100;95429.44;;;;
2021/02/21 01:33:02;;;;;;;9.700002;5.05;;;;;;;0.24;100;95429.44;;;;
2021/02/21 01:34:04;;;;;;;9.700002;5.05;;;;;;;0.24;100;95429.44;;;;
2021/02/21 01:35:05;;;;;;;9.700002;5.05;;;;;;;0.24;100;95429.44;;;;
2021/02/21 01:36:07;;;;;;;9.700002;5.05;;;;;;;0.24;100;95429.44;;;;
2021/02/21 01:37:08;;;;;;;9.700002;5.05;;;;;;;0.24;100;95429.44;;;;
2021/02/21 01:38:09;;;;;;;9.700002;5.05;;;;;;;0.24;100;95429.44;;;;
2021/02/21 01:39:09;;;;;;;9.700002;5.05;;;;;;;0.24;100;95429.44;;;;
2021/02/21 01:40:09;;;;;;;7.950001;4.55;;;;;;;0.09;100;95428.45;;;;
2021/02/21 01:41:13;;;;;;;7.950001;4.55;;;;;;;0.09;100;95428.45;;;;
2021/02/21 01:42:13;;;;;;;7.950001;4.55;;;;;;;0.09;100;95428.45;;;;
2021/02/21 01:43:15;;;;;;;7.950001;4.55;;;;;;;0.09;100;95428.45;;;;
2021/02/21 01:44:16;;;;;;;7.950001;4.55;;;;;;;0.09;100;95428.45;;;;
2021/02/21 01:45:17;;;;;;;7.950001;4.55;;;;;;;0.09;100;95428.45;;;;
2021/02/21 01:46:18;;;;;;;7.950001;4.55;;;;;;;0.09;100;95428.45;;;;
2021/02/21 01:47:18;;;;;;;7.950001;4.55;;;;;;;0.09;100;95428.45;;;;
2021/02/21 01:48:19;;;;;;;7.950001;4.55;;;;;;;0.09;100;95428.45;;;;
2021/02/21 01:49:24;;;;;;;7.950001;4.55;;;;;;;0.09;100;95428.45;;;;
2021/02/21 01:50:24;;;;;;;6.7;4.35;;;;;;;-0.01;100;95433.54;;;;
2021/02/21 01:51:29;;;;;;;6.7;4.35;;;;;;;-0.01;100;95433.54;;;;
2021/02/21 01:52:30;;;;;;;6.7;4.35;;;;;;;-0.01;100;95433.54;;;;
2021/02/21 01:53:30;;;;;;;6.7;4.35;;;;;;;-0.01;100;95433.54;;;;
2021/02/21 01:54:31;;;;;;;6.7;4.35;;;;;;;-0.01;100;95433.54;;;;
2021/02/21 01:55:31;;;;;;;6.7;4.35;;;;;;;-0.01;100;95433.54;;;;
2021/02/21 01:56:34;;;;;;;6.7;4.35;;;;;;;-0.01;100;95433.54;;;;
2021/02/21 01:57:38;;;;;;;6.7;4.35;;;;;;;-0.01;100;95433.54;;;;
2021/02/21 01:58:38;;;;;;;6.7;4.35;;;;;;;-0.01;100;95433.54;;;;
2021/02/21 01:59:39;;;;;;;6.7;4.35;;;;;;;-0.01;100;95433.54;;;;
2021/02/21 02:00:39;;;;;;;9.050001;4.45;;;;;;;-0.09;100;95421.7;;;;
2021/02/21 02:01:40;;;;;;;9.050001;4.45;;;;;;;-0.09;100;95421.7;;;;
2021/02/21 02:02:41;;;;;;;9.050001;4.45;;;;;;;-0.09;100;95421.7;;;;
2021/02/21 02:03:46;;;;;;;9.050001;4.45;;;;;;;-0.09;100;95421.7;;;;
2021/02/21 02:04:55;;;;;;;9.050001;4.45;;;;;;;-0.09;100;95421.7;;;;
2021/02/21 02:06:01;;;;;;;9.050001;4.45;;;;;;;-0.09;100;95421.7;;;;
2021/02/21 02:07:12;;;;;;;9.050001;4.45;;;;;;;-0.09;100;95421.7;;;;
2021/02/21 02:08:15;;;;;;;9.050001;4.45;;;;;;;-0.09;100;95421.7;;;;
2021/02/21 02:09:25;;;;;;;9.050001;4.45;;;;;;;-0.09;100;95421.7;;;;
2021/02/21 02:10:31;;;;;;;9.050001;4.45;;;;;;;-0.09;100;95421.7;;;;
2021/02/21 02:11:40;;;;;;;8.950002;4.5;;;;;;;-0.17;100;95428.33;;;;
2021/02/21 02:12:54;;;;;;;8.950002;4.5;;;;;;;-0.17;100;95428.33;;;;
2021/02/21 02:13:58;;;;;;;8.950002;4.5;;;;;;;-0.17;100;95428.33;;;;
2021/02/21 02:15:04;;;;;;;8.950002;4.5;;;;;;;-0.17;100;95428.33;;;;
2021/02/21 02:16:09;;;;;;;8.950002;4.5;;;;;;;-0.17;100;95428.33;;;;
2021/02/21 02:17:11;;;;;;;8.950002;4.5;;;;;;;-0.17;100;95428.33;;;;
2021/02/21 02:18:16;;;;;;;8.950002;4.5;;;;;;;-0.17;100;95428.33;;;;
2021/02/21 02:19:21;;;;;;;8.950002;4.5;;;;;;;-0.17;100;95428.33;;;;
2021/02/21 02:20:30;;;;;;;8.950002;4.5;;;;;;;-0.17;100;95428.33;;;;
2021/02/21 02:21:42;;;;;;;8.950002;4.5;;;;;;;-0.17;100;95428.33;;;;
2021/02/21 02:22:44;;;;;;;9;4.099999;;;;;;;-0.27;100;95419.62;;;;
2021/02/21 02:23:57;;;;;;;9;4.099999;;;;;;;-0.27;100;95419.62;;;;
2021/02/21 02:25:05;;;;;;;9;4.099999;;;;;;;-0.27;100;95419.62;;;;
2021/02/21 02:26:08;;;;;;;9;4.099999;;;;;;;-0.27;100;95419.62;;;;
2021/02/21 02:27:13;;;;;;;9;4.099999;;;;;;;-0.27;100;95419.62;;;;
2021/02/21 02:28:14;;;;;;;9;4.099999;;;;;;;-0.27;100;95419.62;;;;
2021/02/21 02:29:18;;;;;;;9;4.099999;;;;;;;-0.27;100;95419.62;;;;
2021/02/21 02:30:21;;;;;;;9;4.099999;;;;;;;-0.27;100;95419.62;;;;
2021/02/21 02:31:27;;;;;;;9;4.099999;;;;;;;-0.27;100;95419.62;;;;
2021/02/21 02:32:28;;;;;;;9;4.099999;;;;;;;-0.27;100;95419.62;;;;
2021/02/21 02:33:30;;;;;;;6.6;3.9;;;;;;;-0.35;100;95405.13;;;;
2021/02/21 02:34:33;;;;;;;6.6;3.9;;;;;;;-0.35;100;95405.13;;;;
2021/02/21 02:35:34;;;;;;;6.6;3.9;;;;;;;-0.35;100;95405.13;;;;
2021/02/21 02:36:36;;;;;;;6.6;3.9;;;;;;;-0.35;100;95405.13;;;;
2021/02/21 02:37:39;;;;;;;6.6;3.9;;;;;;;-0.35;100;95405.13;;;;
2021/02/21 02:38:42;;;;;;;6.6;3.9;;;;;;;-0.35;100;95405.13;;;;
2021/02/21 02:39:47;;;;;;;6.6;3.9;;;;;;;-0.35;100;95405.13;;;;
2021/02/21 02:40:50;;;;;;;6.6;3.9;;;;;;;-0.35;100;95405.13;;;;
2021/02/21 02:41:51;;;;;;;6.6;3.9;;;;;;;-0.35;100;95405.13;;;;
2021/02/21 02:42:53;;;;;;;6.6;3.9;;;;;;;-0.35;100;95405.13;;;;
2021/02/21 02:43:54;;;;;;;8.55;4.8;;;;;;;-0.44;100;95399.49;;;;
2021/02/21 02:44:58;;;;;;;8.55;4.8;;;;;;;-0.44;100;95399.49;;;;
2021/02/21 02:46:00;;;;;;;8.55;4.8;;;;;;;-0.44;100;95399.49;;;;
2021/02/21 02:47:01;;;;;;;8.55;4.8;;;;;;;-0.44;100;95399.49;;;;
2021/02/21 02:48:02;;;;;;;8.55;4.8;;;;;;;-0.44;100;95399.49;;;;
2021/02/21 02:49:04;;;;;;;8.55;4.8;;;;;;;-0.44;100;95399.49;;;;
2021/02/21 02:50:07;;;;;;;8.55;4.8;;;;;;;-0.44;100;95399.49;;;;
2021/02/21 02:51:10;;;;;;;8.55;4.8;;;;;;;-0.44;100;95399.49;;;;
2021/02/21 02:52:12;;;;;;;8.55;4.8;;;;;;;-0.44;100;95399.49;;;;
2021/02/21 02:53:17;;;;;;;8.55;4.8;;;;;;;-0.44;100;95399.49;;;;
2021/02/21 02:54:19;;;;;;;7.55;4.85;;;;;;;-0.51;100;95391.8;;;;
2021/02/21 02:55:21;;;;;;;7.55;4.85;;;;;;;-0.51;100;95391.8;;;;
2021/02/21 02:56:22;;;;;;;7.55;4.85;;;;;;;-0.51;100;95391.8;;;;
2021/02/21 02:57:23;;;;;;;7.55;4.85;;;;;;;-0.51;100;95391.8;;;;
2021/02/21 02:58:25;;;;;;;7.55;4.85;;;;;;;-0.51;100;95391.8;;;;
2021/02/21 02:59:27;;;;;;;7.55;4.85;;;;;;;-0.51;100;95391.8;;;;
2021/02/21 03:00:28;;;;;;;7.55;4.85;;;;;;;-0.51;100;95391.8;;;;
2021/02/21 03:01:30;;;;;;;7.55;4.85;;;;;;;-0.51;100;95391.8;;;;
2021/02/21 03:02:32;;;;;;;7.55;4.85;;;;;;;-0.51;100;95391.8;;;;
2021/02/21 03:03:34;;;;;;;7.55;4.85;;;;;;;-0.51;100;95391.8;;;;
2021/02/21 03:04:35;;;;;;;7.55;4.85;;;;;;;-0.51;100;95391.8;;;;
2021/02/21 03:05:36;;;;;;;9.75;5.050001;;;;;;;-0.55;100;95391.8;;;;
2021/02/21 03:06:36;;;;;;;9.75;5.050001;;;;;;;-0.55;100;95391.8;;;;
2021/02/21 03:07:39;;;;;;;9.75;5.050001;;;;;;;-0.55;100;95391.8;;;;
2021/02/21 03:08:40;;;;;;;9.75;5.050001;;;;;;;-0.55;100;95391.8;;;;
2021/02/21 03:09:41;;;;;;;9.75;5.050001;;;;;;;-0.55;100;95391.8;;;;
2021/02/21 03:10:41;;;;;;;9.75;5.050001;;;;;;;-0.55;100;95391.8;;;;
2021/02/21 03:11:42;;;;;;;9.75;5.050001;;;;;;;-0.55;100;95391.8;;;;
2021/02/21 03:12:43;;;;;;;9.75;5.050001;;;;;;;-0.55;100;95391.8;;;;
2021/02/21 03:13:45;;;;;;;9.75;5.050001;;;;;;;-0.55;100;95391.8;;;;
2021/02/21 03:14:45;;;;;;;9.75;5.050001;;;;;;;-0.55;100;95391.8;;;;
2021/02/21 03:15:47;;;;;;;7.95;5.05;;;;;;;-0.57;100;95384.5;;;;
2021/02/21 03:16:48;;;;;;;7.95;5.05;;;;;;;-0.57;100;95384.5;;;;
2021/02/21 03:17:49;;;;;;;7.95;5.05;;;;;;;-0.57;100;95384.5;;;;
2021/02/21 03:18:52;;;;;;;7.95;5.05;;;;;;;-0.57;100;95384.5;;;;
2021/02/21 03:19:53;;;;;;;7.95;5.05;;;;;;;-0.57;100;95384.5;;;;
2021/02/21 03:20:55;;;;;;;7.95;5.05;;;;;;;-0.57;100;95384.5;;;;
2021/02/21 03:21:55;;;;;;;7.95;5.05;;;;;;;-0.57;100;95384.5;;;;
2021/02/21 03:22:56;;;;;;;7.95;5.05;;;;;;;-0.57;100;95384.5;;;;
2021/02/21 03:23:57;;;;;;;7.95;5.05;;;;;;;-0.57;100;95384.5;;;;
2021/02/21 03:24:58;;;;;;;7.95;5.05;;;;;;;-0.57;100;95384.5;;;;
2021/02/21 03:26:00;;;;;;;6.1;4.700001;;;;;;;-0.6;100;95381.77;;;;
2021/02/21 03:27:01;;;;;;;6.1;4.700001;;;;;;;-0.6;100;95381.77;;;;
2021/02/21 03:28:03;;;;;;;6.1;4.700001;;;;;;;-0.6;100;95381.77;;;;
2021/02/21 03:29:05;;;;;;;6.1;4.700001;;;;;;;-0.6;100;95381.77;;;;
2021/02/21 03:30:08;;;;;;;6.1;4.700001;;;;;;;-0.6;100;95381.77;;;;
2021/02/21 03:31:11;;;;;;;6.1;4.700001;;;;;;;-0.6;100;95381.77;;;;
2021/02/21 03:32:12;;;;;;;6.1;4.700001;;;;;;;-0.6;100;95381.77;;;;
2021/02/21 03:33:15;;;;;;;6.1;4.700001;;;;;;;-0.6;100;95381.77;;;;
2021/02/21 03:34:18;;;;;;;6.1;4.700001;;;;;;;-0.6;100;95381.77;;;;
2021/02/21 03:35:23;;;;;;;6.1;4.700001;;;;;;;-0.6;100;95381.77;;;;
2021/02/21 03:36:24;;;;;;;6.1;4.700001;;;;;;;-0.6;100;95381.77;;;;
2021/02/21 03:37:26;;;;;;;7.4;4.45;;;;;;;-0.58;100;95385.9;;;;
2021/02/21 03:38:27;;;;;;;7.4;4.45;;;;;;;-0.58;100;95385.9;;;;
2021/02/21 03:39:28;;;;;;;7.4;4.45;;;;;;;-0.58;100;95385.9;;;;
2021/02/21 03:40:31;;;;;;;7.4;4.45;;;;;;;-0.58;100;95385.9;;;;
2021/02/21 03:41:32;;;;;;;7.4;4.45;;;;;;;-0.58;100;95385.9;;;;
2021/02/21 03:42:37;;;;;;;7.4;4.45;;;;;;;-0.58;100;95385.9;;;;
2021/02/21 03:43:41;;;;;;;7.4;4.45;;;;;;;-0.58;100;95385.9;;;;
2021/02/21 03:44:42;;;;;;;7.4;4.45;;;;;;;-0.58;100;95385.9;;;;
2021/02/21 03:45:45;;;;;;;7.4;4.45;;;;;;;-0.58;100;95385.9;;;;
2021/02/21 03:46:46;;;;;;;7.4;4.45;;;;;;;-0.58;100;95385.9;;;;
2021/02/21 03:47:48;;;;;;;6.349999;4;;;;;;;-0.62;100;95385.08;;;;
2021/02/21 03:48:50;;;;;;;6.349999;4;;;;;;;-0.62;100;95385.08;;;;
2021/02/21 03:49:51;;;;;;;6.349999;4;;;;;;;-0.62;100;95385.08;;;;
2021/02/21 03:50:53;;;;;;;6.349999;4;;;;;;;-0.62;100;95385.08;;;;
2021/02/21 03:51:55;;;;;;;6.349999;4;;;;;;;-0.62;100;95385.08;;;;
2021/02/21 03:52:57;;;;;;;6.349999;4;;;;;;;-0.62;100;95385.08;;;;
2021/02/21 03:53:59;;;;;;;6.349999;4;;;;;;;-0.62;100;95385.08;;;;
2021/02/21 03:55:03;;;;;;;6.349999;4;;;;;;;-0.62;100;95385.08;;;;
2021/02/21 03:56:06;;;;;;;6.349999;4;;;;;;;-0.62;100;95385.08;;;;
2021/02/21 03:57:07;;;;;;;6.349999;4;;;;;;;-0.62;100;95385.08;;;;
2021/02/21 03:58:08;;;;;;;6.349999;4;;;;;;;-0.62;100;95385.08;;;;
2021/02/21 03:59:10;;;;;;;6.349999;4;;;;;;;-0.62;100;95385.08;;;;
2021/02/21 04:00:11;;;;;;;6.349999;4;;;;;;;-0.62;100;95385.08;;;;
2021/02/21 04:01:13;;;;;;;6.349999;4;;;;;;;-0.62;100;95385.08;;;;
2021/02/21 04:02:13;;;;;;;6.349999;4;;;;;;;-0.62;100;95385.08;;;;
2021/02/21 04:03:16;;;;;;;6.349999;4;;;;;;;-0.62;100;95385.08;;;;
2021/02/21 04:04:17;;;;;;;6.349999;4;;;;;;;-0.62;100;95385.08;;;;
2021/02/21 04:05:23;;;;;;;6.349999;4;;;;;;;-0.62;100;95385.08;;;;
2021/02/21 04:06:24;;;;;;;6.349999;4;;;;;;;-0.62;100;95385.08;;;;
2021/02/21 04:07:24;;;;;;;6.349999;4;;;;;;;-0.62;100;95385.08;;;;
2021/02/21 04:08:25;;;;;;;6.349999;4;;;;;;;-0.62;100;95385.08;;;;
2021/02/21 04:09:26;;;;;;;7.45;3.900001;;;;;;;-0.79;100;95390.45;;;;
2021/02/21 04:10:26;;;;;;;7.45;3.900001;;;;;;;-0.79;100;95390.45;;;;
2021/02/21 04:11:27;;;;;;;7.45;3.900001;;;;;;;-0.79;100;95390.45;;;;
2021/02/21 04:12:27;;;;;;;7.45;3.900001;;;;;;;-0.79;100;95390.45;;;;
2021/02/21 04:13:28;;;;;;;7.45;3.900001;;;;;;;-0.79;100;95390.45;;;;
2021/02/21 04:14:28;;;;;;;7.45;3.900001;;;;;;;-0.79;100;95390.45;;;;
2021/02/21 04:15:29;;;;;;;7.45;3.900001;;;;;;;-0.79;100;95390.45;;;;
2021/02/21 04:16:30;;;;;;;7.45;3.900001;;;;;;;-0.79;100;95390.45;;;;
2021/02/21 04:17:31;;;;;;;7.45;3.900001;;;;;;;-0.79;100;95390.45;;;;
2021/02/21 04:18:31;;;;;;;7.45;3.900001;;;;;;;-0.79;100;95390.45;;;;
2021/02/21 04:19:31;;;;;;;7.4;3.85;;;;;;;-0.89;100;95392.02;;;;
2021/02/21 04:20:32;;;;;;;7.4;3.85;;;;;;;-0.89;100;95392.02;;;;
2021/02/21 04:21:33;;;;;;;7.4;3.85;;;;;;;-0.89;100;95392.02;;;;
2021/02/21 04:22:33;;;;;;;7.4;3.85;;;;;;;-0.89;100;95392.02;;;;
2021/02/21 04:23:34;;;;;;;7.4;3.85;;;;;;;-0.89;100;95392.02;;;;
2021/02/21 04:24:34;;;;;;;7.4;3.85;;;;;;;-0.89;100;95392.02;;;;
2021/02/21 04:25:35;;;;;;;7.4;3.85;;;;;;;-0.89;100;95392.02;;;;
2021/02/21 04:26:35;;;;;;;7.4;3.85;;;;;;;-0.89;100;95392.02;;;;
2021/02/21 04:27:36;;;;;;;7.4;3.85;;;;;;;-0.89;100;95392.02;;;;
2021/02/21 04:28:36;;;;;;;7.4;3.85;;;;;;;-0.89;100;95392.02;;;;
2021/02/21 04:29:37;;;;;;;7.4;3.85;;;;;;;-0.89;100;95392.02;;;;
2021/02/21 04:30:37;;;;;;;7.4;3.85;;;;;;;-0.89;100;95392.02;;;;
2021/02/21 04:31:38;;;;;;;7.4;3.85;;;;;;;-0.89;100;95392.02;;;;
2021/02/21 04:32:38;;;;;;;7.4;3.85;;;;;;;-0.89;100;95392.02;;;;
2021/02/21 04:33:39;;;;;;;7.4;3.85;;;;;;;-0.89;100;95392.02;;;;
2021/02/21 04:34:40;;;;;;;7.4;3.85;;;;;;;-0.89;100;95392.02;;;;
2021/02/21 04:35:41;;;;;;;7.4;3.85;;;;;;;-0.89;100;95392.02;;;;
2021/02/21 04:36:47;;;;;;;7.4;3.85;;;;;;;-0.89;100;95392.02;;;;
2021/02/21 04:37:48;;;;;;;7.4;3.85;;;;;;;-0.89;100;95392.02;;;;
2021/02/21 04:38:48;;;;;;;7.4;3.85;;;;;;;-0.89;100;95392.02;;;;
2021/02/21 04:39:48;;;;;;;7.4;3.85;;;;;;;-0.89;100;95392.02;;;;
2021/02/21 04:40:49;;;;;;;7.4;3.85;;;;;;;-0.89;100;95392.02;;;;
2021/02/21 04:41:49;;;;;;;6.6;3.65;;;;;;;-0.96;100;95402.94;;;;
2021/02/21 04:42:50;;;;;;;6.6;3.65;;;;;;;-0.96;100;95402.94;;;;
2021/02/21 04:43:51;;;;;;;6.6;3.65;;;;;;;-0.96;100;95402.94;;;;
2021/02/21 04:44:51;;;;;;;6.6;3.65;;;;;;;-0.96;100;95402.94;;;;
2021/02/21 04:45:52;;;;;;;6.6;3.65;;;;;;;-0.96;100;95402.94;;;;
2021/02/21 04:46:52;;;;;;;6.6;3.65;;;;;;;-0.96;100;95402.94;;;;
2021/02/21 04:47:52;;;;;;;6.6;3.65;;;;;;;-0.96;100;95402.94;;;;
2021/02/21 04:48:53;;;;;;;6.6;3.65;;;;;;;-0.96;100;95402.94;;;;
2021/02/21 04:49:53;;;;;;;6.6;3.65;;;;;;;-0.96;100;95402.94;;;;
2021/02/21 04:50:54;;;;;;;6.6;3.65;;;;;;;-0.96;100;95402.94;;;;
2021/02/21 04:51:54;;;;;;;4.95;3.5;;;;;;;-0.99;100;95403.7;;;;
2021/02/21 04:52:55;;;;;;;4.95;3.5;;;;;;;-0.99;100;95403.7;;;;
2021/02/21 04:53:55;;;;;;;4.95;3.5;;;;;;;-0.99;100;95403.7;;;;
2021/02/21 04:54:56;;;;;;;4.95;3.5;;;;;;;-0.99;100;95403.7;;;;
2021/02/21 04:55:57;;;;;;;4.95;3.5;;;;;;;-0.99;100;95403.7;;;;
2021/02/21 04:56:58;;;;;;;4.95;3.5;;;;;;;-0.99;100;95403.7;;;;
2021/02/21 04:57:58;;;;;;;4.95;3.5;;;;;;;-0.99;100;95403.7;;;;
2021/02/21 04:58:59;;;;;;;4.95;3.5;;;;;;;-0.99;100;95403.7;;;;
2021/02/21 04:59:59;;;;;;;4.95;3.5;;;;;;;-0.99;100;95403.7;;;;
2021/02/21 05:01:00;;;;;;;4.95;3.5;;;;;;;-0.99;100;95403.7;;;;
2021/02/21 05:02:01;;;;;;;4.95;3.5;;;;;;;-0.99;100;95403.7;;;;
2021/02/21 05:03:01;;;;;;;7.75;3.8;;;;;;;-1.08;100;95401.09;;;;
2021/02/21 05:04:02;;;;;;;7.75;3.8;;;;;;;-1.08;100;95401.09;;;;
2021/02/21 05:05:03;;;;;;;7.75;3.8;;;;;;;-1.08;100;95401.09;;;;
2021/02/21 05:06:05;;;;;;;7.75;3.8;;;;;;;-1.08;100;95401.09;;;;
2021/02/21 05:07:06;;;;;;;7.75;3.8;;;;;;;-1.08;100;95401.09;;;;
2021/02/21 05:08:06;;;;;;;7.75;3.8;;;;;;;-1.08;100;95401.09;;;;
2021/02/21 05:09:07;;;;;;;7.75;3.8;;;;;;;-1.08;100;95401.09;;;;
2021/02/21 05:10:08;;;;;;;7.75;3.8;;;;;;;-1.08;100;95401.09;;;;
2021/02/21 05:11:09;;;;;;;7.75;3.8;;;;;;;-1.08;100;95401.09;;;;
2021/02/21 05:12:10;;;;;;;7.75;3.8;;;;;;;-1.08;100;95401.09;;;;
2021/02/21 05:13:10;;;;;;;6.300001;3.5;;;;;;;-1.13;100;95406.53;;;;
2021/02/21 05:14:11;;;;;;;6.300001;3.5;;;;;;;-1.13;100;95406.53;;;;
2021/02/21 05:15:11;;;;;;;6.300001;3.5;;;;;;;-1.13;100;95406.53;;;;
2021/02/21 05:16:13;;;;;;;6.300001;3.5;;;;;;;-1.13;100;95406.53;;;;
2021/02/21 05:17:13;;;;;;;6.300001;3.5;;;;;;;-1.13;100;95406.53;;;;
2021/02/21 05:18:14;;;;;;;6.300001;3.5;;;;;;;-1.13;100;95406.53;;;;
2021/02/21 05:19:15;;;;;;;6.300001;3.5;;;;;;;-1.13;100;95406.53;;;;
2021/02/21 05:20:17;;;;;;;6.300001;3.5;;;;;;;-1.13;100;95406.53;;;;
2021/02/21 05:21:18;;;;;;;6.300001;3.5;;;;;;;-1.13;100;95406.53;;;;
2021/02/21 05:22:18;;;;;;;6.300001;3.5;;;;;;;-1.13;100;95406.53;;;;
2021/02/21 05:23:19;;;;;;;6.300001;3.5;;;;;;;-1.13;100;95406.53;;;;
2021/02/21 05:24:19;;;;;;;5.2;2.85;;;;;;;-1.19;100;95402.32;;;;
2021/02/21 05:25:20;;;;;;;5.2;2.85;;;;;;;-1.19;100;95402.32;;;;
2021/02/21 05:26:21;;;;;;;5.2;2.85;;;;;;;-1.19;100;95402.32;;;;
2021/02/21 05:27:21;;;;;;;5.2;2.85;;;;;;;-1.19;100;95402.32;;;;
2021/02/21 05:28:22;;;;;;;5.2;2.85;;;;;;;-1.19;100;95402.32;;;;
2021/02/21 05:29:22;;;;;;;5.2;2.85;;;;;;;-1.19;100;95402.32;;;;
2021/02/21 05:30:22;;;;;;;5.2;2.85;;;;;;;-1.19;100;95402.32;;;;
2021/02/21 05:31:24;;;;;;;5.2;2.85;;;;;;;-1.19;100;95402.32;;;;
2021/02/21 05:32:24;;;;;;;5.2;2.85;;;;;;;-1.19;100;95402.32;;;;
2021/02/21 05:33:25;;;;;;;5.2;2.85;;;;;;;-1.19;100;95402.32;;;;
2021/02/21 05:34:25;;;;;;;5.2;2.85;;;;;;;-1.19;100;95402.32;;;;
2021/02/21 05:35:26;;;;;;;5.349999;3.1;;;;;;;-1.19;100;95401.81;;;;
2021/02/21 05:36:26;;;;;;;5.349999;3.1;;;;;;;-1.19;100;95401.81;;;;
2021/02/21 05:37:27;;;;;;;5.349999;3.1;;;;;;;-1.19;100;95401.81;;;;
2021/02/21 05:38:27;;;;;;;5.349999;3.1;;;;;;;-1.19;100;95401.81;;;;
2021/02/21 05:39:27;;;;;;;5.349999;3.1;;;;;;;-1.19;100;95401.81;;;;
2021/02/21 05:40:28;;;;;;;5.349999;3.1;;;;;;;-1.19;100;95401.81;;;;
2021/02/21 05:41:29;;;;;;;5.349999;3.1;;;;;;;-1.19;100;95401.81;;;;
2021/02/21 05:42:32;;;;;;;5.349999;3.1;;;;;;;-1.19;100;95401.81;;;;
2021/02/21 05:43:32;;;;;;;5.349999;3.1;;;;;;;-1.19;100;95401.81;;;;
2021/02/21 05:44:33;;;;;;;5.349999;3.1;;;;;;;-1.19;100;95401.81;;;;
2021/02/21 05:45:36;;;;;;;5.6;2.85;;;;;;;-1.22;100;95406.59;;;;
2021/02/21 05:46:37;;;;;;;5.6;2.85;;;;;;;-1.22;100;95406.59;;;;
2021/02/21 05:47:38;;;;;;;5.6;2.85;;;;;;;-1.22;100;95406.59;;;;
2021/02/21 05:48:41;;;;;;;5.6;2.85;;;;;;;-1.22;100;95406.59;;;;
2021/02/21 05:49:42;;;;;;;5.6;2.85;;;;;;;-1.22;100;95406.59;;;;
2021/02/21 05:50:44;;;;;;;5.6;2.85;;;;;;;-1.22;100;95406.59;;;;
2021/02/21 05:51:45;;;;;;;5.6;2.85;;;;;;;-1.22;100;95406.59;;;;
2021/02/21 05:52:46;;;;;;;5.6;2.85;;;;;;;-1.22;100;95406.59;;;;
2021/02/21 05:53:47;;;;;;;5.6;2.85;;;;;;;-1.22;100;95406.59;;;;
2021/02/21 05:54:49;;;;;;;5.6;2.85;;;;;;;-1.22;100;95406.59;;;;
2021/02/21 05:55:51;;;;;;;5.6;2.85;;;;;;;-1.22;100;95406.59;;;;
2021/02/21 05:56:51;;;;;;;5.15;2.85;;;;;;;-1.26;100;95407.42;;;;
2021/02/21 05:57:52;;;;;;;5.15;2.85;;;;;;;-1.26;100;95407.42;;;;
2021/02/21 05:58:53;;;;;;;5.15;2.85;;;;;;;-1.26;100;95407.42;;;;
2021/02/21 05:59:54;;;;;;;5.15;2.85;;;;;;;-1.26;100;95407.42;;;;
2021/02/21 06:00:56;;;;;;;5.15;2.85;;;;;;;-1.26;100;95407.42;;;;
2021/02/21 06:01:57;;;;;;;5.15;2.85;;;;;;;-1.26;100;95407.42;;;;
2021/02/21 06:03:00;;;;;;;5.15;2.85;;;;;;;-1.26;100;95407.42;;;;
2021/02/21 06:04:01;;;;;;;5.15;2.85;;;;;;;-1.26;100;95407.42;;;;
2021/02/21 06:05:02;;;;;;;5.15;2.85;;;;;;;-1.26;100;95407.42;;;;
2021/02/21 06:06:04;;;;;;;5.15;2.85;;;;;;;-1.26;100;95407.42;;;;
2021/02/21 06:07:05;;;;;;;6.650001;3.1;;;;;;;-1.28;100;95425.28;;;;
2021/02/21 06:08:05;;;;;;;6.650001;3.1;;;;;;;-1.28;100;95425.28;;;;
2021/02/21 06:09:06;;;;;;;6.650001;3.1;;;;;;;-1.28;100;95425.28;;;;
2021/02/21 06:10:07;;;;;;;6.650001;3.1;;;;;;;-1.28;100;95425.28;;;;
2021/02/21 06:11:09;;;;;;;6.650001;3.1;;;;;;;-1.28;100;95425.28;;;;